sensor_id;sensor_type;location;lat;lon;timestamp;temperature;humidity
5394;DHT22;2720;52.396;10.064;2022-12-24T00:01:37;6.10;99.90
5394;DHT22;2720;52.396;10.064;2022-12-24T00:04:04;6.10;99.90
5394;DHT22;2720;52.396;10.064;2022-12-24T00:06:32;6.00;99.90
5394;DHT22;2720;52.396;10.064;2022-12-24T00:08:59;6.00;99.90
5394;DHT22;2720;52.396;10.064;2022-12-24T00:11:26;6.00;99.90
5394;DHT22;2720;52.396;10.064;2022-12-24T00:13:53;6.00;99.90
5394;DHT22;2720;52.396;10.064;2022-12-24T00:16:21;5.90;99.90
5394;DHT22;2720;52.396;10.064;2022-12-24T00:18:48;5.90;99.90
5394;DHT22;2720;52.396;10.064;2022-12-24T00:21:15;5.90;99.90
5394;DHT22;2720;52.396;10.064;2022-12-24T00:23:43;5.70;99.90
5394;DHT22;2720;52.396;10.064;2022-12-24T00:26:10;5.90;99.90
5394;DHT22;2720;52.396;10.064;2022-12-24T00:28:37;5.80;99.90
5394;DHT22;2720;52.396;10.064;2022-12-24T00:31:09;5.80;99.90
5394;DHT22;2720;52.396;10.064;2022-12-24T00:33:38;5.80;99.90
5394;DHT22;2720;52.396;10.064;2022-12-24T00:36:06;5.80;99.90
5394;DHT22;2720;52.396;10.064;2022-12-24T00:38:33;5.80;99.90
5394;DHT22;2720;52.396;10.064;2022-12-24T00:41:00;5.70;99.90
5394;DHT22;2720;52.396;10.064;2022-12-24T00:43:28;5.70;99.90
5394;DHT22;2720;52.396;10.064;2022-12-24T00:45:56;5.70;99.90
5394;DHT22;2720;52.396;10.064;2022-12-24T00:48:23;5.70;99.90
5394;DHT22;2720;52.396;10.064;2022-12-24T00:50:51;5.70;99.90
5394;DHT22;2720;52.396;10.064;2022-12-24T00:53:18;5.70;99.90
5394;DHT22;2720;52.396;10.064;2022-12-24T00:55:45;5.70;99.90
5394;DHT22;2720;52.396;10.064;2022-12-24T00:58:12;5.70;99.90
5394;DHT22;2720;52.396;10.064;2022-12-24T01:00:39;5.70;99.90
5394;DHT22;2720;52.396;10.064;2022-12-24T01:03:06;5.70;99.90
5394;DHT22;2720;52.396;10.064;2022-12-24T03:24:34;6.20;99.90
5394;DHT22;2720;52.396;10.064;2022-12-24T03:27:01;6.50;99.90
5394;DHT22;2720;52.396;10.064;2022-12-24T03:29:29;6.30;99.90
5394;DHT22;2720;52.396;10.064;2022-12-24T03:32:00;6.40;99.90
5394;DHT22;2720;52.396;10.064;2022-12-24T03:34:29;6.40;99.90
5394;DHT22;2720;52.396;10.064;2022-12-24T03:36:56;6.30;99.90
5394;DHT22;2720;52.396;10.064;2022-12-24T03:39:23;6.30;99.90
5394;DHT22;2720;52.396;10.064;2022-12-24T03:41:51;6.40;99.90
5394;DHT22;2720;52.396;10.064;2022-12-24T03:44:18;6.50;99.90
5394;DHT22;2720;52.396;10.064;2022-12-24T03:46:45;6.70;99.90
5394;DHT22;2720;52.396;10.064;2022-12-24T03:49:12;6.80;99.90
5394;DHT22;2720;52.396;10.064;2022-12-24T03:51:40;7.00;99.90
5394;DHT22;2720;52.396;10.064;2022-12-24T03:54:07;7.20;99.90
5394;DHT22;2720;52.396;10.064;2022-12-24T03:56:34;7.30;99.90
5394;DHT22;2720;52.396;10.064;2022-12-24T03:59:01;7.10;99.90
5394;DHT22;2720;52.396;10.064;2022-12-24T04:01:28;7.00;99.90
5394;DHT22;2720;52.396;10.064;2022-12-24T04:03:55;7.10;99.90
5394;DHT22;2720;52.396;10.064;2022-12-24T04:06:22;7.10;99.90
5394;DHT22;2720;52.396;10.064;2022-12-24T04:08:50;7.20;99.90
5394;DHT22;2720;52.396;10.064;2022-12-24T04:11:17;7.30;99.90
5394;DHT22;2720;52.396;10.064;2022-12-24T04:13:44;7.40;99.90
5394;DHT22;2720;52.396;10.064;2022-12-24T04:16:13;7.80;99.90
5394;DHT22;2720;52.396;10.064;2022-12-24T04:18:41;7.80;99.90
5394;DHT22;2720;52.396;10.064;2022-12-24T04:23:38;8.10;99.90
5394;DHT22;2720;52.396;10.064;2022-12-24T04:26:08;8.20;99.90
5394;DHT22;2720;52.396;10.064;2022-12-24T04:28:36;8.40;99.90
5394;DHT22;2720;52.396;10.064;2022-12-24T04:31:05;8.50;99.90
5394;DHT22;2720;52.396;10.064;2022-12-24T04:33:33;8.60;99.90
5394;DHT22;2720;52.396;10.064;2022-12-24T04:36:01;8.60;99.90
5394;DHT22;2720;52.396;10.064;2022-12-24T04:38:28;8.60;99.90
5394;DHT22;2720;52.396;10.064;2022-12-24T04:40:58;8.70;99.90
5394;DHT22;2720;52.396;10.064;2022-12-24T04:43:28;8.60;99.90
5394;DHT22;2720;52.396;10.064;2022-12-24T04:45:56;8.70;99.90
5394;DHT22;2720;52.396;10.064;2022-12-24T04:48:23;8.60;99.90
5394;DHT22;2720;52.396;10.064;2022-12-24T04:50:50;8.70;99.90
5394;DHT22;2720;52.396;10.064;2022-12-24T04:53:17;8.60;99.90
5394;DHT22;2720;52.396;10.064;2022-12-24T04:55:44;8.70;99.90
5394;DHT22;2720;52.396;10.064;2022-12-24T04:58:12;8.80;99.90
5394;DHT22;2720;52.396;10.064;2022-12-24T05:00:40;8.70;99.90
5394;DHT22;2720;52.396;10.064;2022-12-24T05:03:07;8.80;99.90
5394;DHT22;2720;52.396;10.064;2022-12-24T05:05:34;8.80;99.90
5394;DHT22;2720;52.396;10.064;2022-12-24T05:08:01;8.80;99.90
5394;DHT22;2720;52.396;10.064;2022-12-24T05:10:28;8.80;99.90
5394;DHT22;2720;52.396;10.064;2022-12-24T05:12:55;8.80;99.90
5394;DHT22;2720;52.396;10.064;2022-12-24T05:15:23;8.90;99.90
5394;DHT22;2720;52.396;10.064;2022-12-24T05:17:51;8.80;99.90
5394;DHT22;2720;52.396;10.064;2022-12-24T05:20:18;8.80;99.90
5394;DHT22;2720;52.396;10.064;2022-12-24T05:22:45;8.90;99.90
5394;DHT22;2720;52.396;10.064;2022-12-24T05:25:35;8.90;99.90
5394;DHT22;2720;52.396;10.064;2022-12-24T05:28:20;8.90;99.90
5394;DHT22;2720;52.396;10.064;2022-12-24T05:30:47;9.00;99.90
5394;DHT22;2720;52.396;10.064;2022-12-24T05:33:16;9.00;99.90
5394;DHT22;2720;52.396;10.064;2022-12-24T05:35:43;9.00;99.90
5394;DHT22;2720;52.396;10.064;2022-12-24T05:38:10;9.00;99.90
5394;DHT22;2720;52.396;10.064;2022-12-24T05:40:37;9.00;99.90
5394;DHT22;2720;52.396;10.064;2022-12-24T05:43:04;9.00;99.90
5394;DHT22;2720;52.396;10.064;2022-12-24T05:45:31;9.00;99.90
5394;DHT22;2720;52.396;10.064;2022-12-24T05:47:58;9.00;99.90
5394;DHT22;2720;52.396;10.064;2022-12-24T05:50:26;9.00;99.90
5394;DHT22;2720;52.396;10.064;2022-12-24T05:52:53;9.00;99.90
5394;DHT22;2720;52.396;10.064;2022-12-24T05:55:20;9.00;99.90
5394;DHT22;2720;52.396;10.064;2022-12-24T05:57:47;9.00;99.90
5394;DHT22;2720;52.396;10.064;2022-12-24T06:00:14;9.00;99.90
5394;DHT22;2720;52.396;10.064;2022-12-24T06:02:41;9.00;99.90
5394;DHT22;2720;52.396;10.064;2022-12-24T06:05:09;9.00;99.90
5394;DHT22;2720;52.396;10.064;2022-12-24T06:07:37;9.00;99.90
5394;DHT22;2720;52.396;10.064;2022-12-24T06:10:05;9.10;99.90
5394;DHT22;2720;52.396;10.064;2022-12-24T06:12:33;9.10;99.90
5394;DHT22;2720;52.396;10.064;2022-12-24T06:15:00;9.00;99.90
5394;DHT22;2720;52.396;10.064;2022-12-24T06:17:27;9.00;99.90
5394;DHT22;2720;52.396;10.064;2022-12-24T06:19:54;9.00;99.90
5394;DHT22;2720;52.396;10.064;2022-12-24T06:22:21;9.00;99.90
5394;DHT22;2720;52.396;10.064;2022-12-24T06:24:49;9.00;99.90
5394;DHT22;2720;52.396;10.064;2022-12-24T06:27:16;9.00;99.90
5394;DHT22;2720;52.396;10.064;2022-12-24T06:29:43;9.00;99.90
5394;DHT22;2720;52.396;10.064;2022-12-24T06:32:10;9.10;99.90
5394;DHT22;2720;52.396;10.064;2022-12-24T06:34:37;9.00;99.90
5394;DHT22;2720;52.396;10.064;2022-12-24T06:37:04;9.10;99.90
5394;DHT22;2720;52.396;10.064;2022-12-24T06:39:31;9.00;99.90
5394;DHT22;2720;52.396;10.064;2022-12-24T06:42:00;8.90;99.90
5394;DHT22;2720;52.396;10.064;2022-12-24T06:44:27;9.00;99.90
5394;DHT22;2720;52.396;10.064;2022-12-24T06:46:54;9.00;99.90
5394;DHT22;2720;52.396;10.064;2022-12-24T06:49:21;8.90;99.90
5394;DHT22;2720;52.396;10.064;2022-12-24T06:51:48;8.90;99.90
5394;DHT22;2720;52.396;10.064;2022-12-24T06:54:15;8.90;99.90
5394;DHT22;2720;52.396;10.064;2022-12-24T06:56:42;8.80;99.90
5394;DHT22;2720;52.396;10.064;2022-12-24T06:59:10;8.90;99.90
5394;DHT22;2720;52.396;10.064;2022-12-24T07:01:37;8.90;99.90
5394;DHT22;2720;52.396;10.064;2022-12-24T07:04:04;8.80;99.90
5394;DHT22;2720;52.396;10.064;2022-12-24T07:06:31;8.80;99.90
5394;DHT22;2720;52.396;10.064;2022-12-24T07:08:58;8.80;99.90
5394;DHT22;2720;52.396;10.064;2022-12-24T07:11:25;8.90;99.90
5394;DHT22;2720;52.396;10.064;2022-12-24T07:13:53;8.90;99.90
5394;DHT22;2720;52.396;10.064;2022-12-24T07:16:22;8.80;99.90
5394;DHT22;2720;52.396;10.064;2022-12-24T07:18:49;8.90;99.90
5394;DHT22;2720;52.396;10.064;2022-12-24T07:21:16;8.80;99.90
5394;DHT22;2720;52.396;10.064;2022-12-24T07:23:43;8.80;99.90
5394;DHT22;2720;52.396;10.064;2022-12-24T07:26:10;8.90;99.90
5394;DHT22;2720;52.396;10.064;2022-12-24T07:28:37;8.90;99.90
5394;DHT22;2720;52.396;10.064;2022-12-24T07:31:04;8.80;99.90
5394;DHT22;2720;52.396;10.064;2022-12-24T07:33:33;8.80;99.90
5394;DHT22;2720;52.396;10.064;2022-12-24T07:36:03;8.70;99.90
5394;DHT22;2720;52.396;10.064;2022-12-24T07:38:30;8.70;99.90
5394;DHT22;2720;52.396;10.064;2022-12-24T07:40:58;8.70;99.90
5394;DHT22;2720;52.396;10.064;2022-12-24T07:43:25;8.80;99.90
5394;DHT22;2720;52.396;10.064;2022-12-24T07:45:54;8.80;99.90
5394;DHT22;2720;52.396;10.064;2022-12-24T07:48:21;8.70;99.90
5394;DHT22;2720;52.396;10.064;2022-12-24T07:50:49;8.50;99.90
5394;DHT22;2720;52.396;10.064;2022-12-24T07:53:17;8.50;99.90
5394;DHT22;2720;52.396;10.064;2022-12-24T07:55:44;8.40;99.90
5394;DHT22;2720;52.396;10.064;2022-12-24T07:58:11;8.50;99.90
5394;DHT22;2720;52.396;10.064;2022-12-24T08:00:38;8.50;99.90
5394;DHT22;2720;52.396;10.064;2022-12-24T08:03:05;8.50;99.90
5394;DHT22;2720;52.396;10.064;2022-12-24T08:05:33;8.60;99.90
5394;DHT22;2720;52.396;10.064;2022-12-24T08:08:02;8.70;99.90
5394;DHT22;2720;52.396;10.064;2022-12-24T08:10:29;8.70;99.90
5394;DHT22;2720;52.396;10.064;2022-12-24T08:12:56;8.70;99.90
5394;DHT22;2720;52.396;10.064;2022-12-24T08:15:23;8.70;99.90
5394;DHT22;2720;52.396;10.064;2022-12-24T08:17:50;8.50;99.90
5394;DHT22;2720;52.396;10.064;2022-12-24T08:20:17;8.60;99.90
5394;DHT22;2720;52.396;10.064;2022-12-24T08:22:44;8.60;99.90
5394;DHT22;2720;52.396;10.064;2022-12-24T08:25:12;8.60;99.90
5394;DHT22;2720;52.396;10.064;2022-12-24T08:27:39;8.70;99.90
5394;DHT22;2720;52.396;10.064;2022-12-24T08:30:07;8.70;99.90
5394;DHT22;2720;52.396;10.064;2022-12-24T08:32:35;8.60;99.90
5394;DHT22;2720;52.396;10.064;2022-12-24T08:35:02;8.70;99.90
5394;DHT22;2720;52.396;10.064;2022-12-24T08:37:29;8.60;99.90
5394;DHT22;2720;52.396;10.064;2022-12-24T08:39:56;8.50;99.90
5394;DHT22;2720;52.396;10.064;2022-12-24T08:42:24;8.60;99.90
5394;DHT22;2720;52.396;10.064;2022-12-24T08:44:51;8.50;99.90
5394;DHT22;2720;52.396;10.064;2022-12-24T08:47:18;8.50;99.90
5394;DHT22;2720;52.396;10.064;2022-12-24T08:49:45;8.40;99.90
5394;DHT22;2720;52.396;10.064;2022-12-24T08:52:12;8.40;99.90
5394;DHT22;2720;52.396;10.064;2022-12-24T08:54:39;8.50;99.90
5394;DHT22;2720;52.396;10.064;2022-12-24T08:57:06;8.50;99.90
5394;DHT22;2720;52.396;10.064;2022-12-24T08:59:34;8.60;99.90
5394;DHT22;2720;52.396;10.064;2022-12-24T09:02:01;8.80;99.90
5394;DHT22;2720;52.396;10.064;2022-12-24T09:04:28;8.90;99.90
5394;DHT22;2720;52.396;10.064;2022-12-24T09:06:55;8.80;99.90
5394;DHT22;2720;52.396;10.064;2022-12-24T09:09:22;8.90;99.90
5394;DHT22;2720;52.396;10.064;2022-12-24T09:11:49;9.00;99.90
5394;DHT22;2720;52.396;10.064;2022-12-24T09:14:16;9.00;99.90
5394;DHT22;2720;52.396;10.064;2022-12-24T09:16:44;9.10;99.90
5394;DHT22;2720;52.396;10.064;2022-12-24T09:19:11;9.00;99.90
5394;DHT22;2720;52.396;10.064;2022-12-24T09:21:38;9.00;99.90
5394;DHT22;2720;52.396;10.064;2022-12-24T09:24:05;9.00;99.90
5394;DHT22;2720;52.396;10.064;2022-12-24T09:26:32;9.00;99.90
5394;DHT22;2720;52.396;10.064;2022-12-24T09:29:01;9.00;99.90
5394;DHT22;2720;52.396;10.064;2022-12-24T09:31:28;9.00;99.90
5394;DHT22;2720;52.396;10.064;2022-12-24T09:33:57;9.00;99.90
5394;DHT22;2720;52.396;10.064;2022-12-24T09:36:24;9.00;99.90
5394;DHT22;2720;52.396;10.064;2022-12-24T09:38:51;8.90;99.90
5394;DHT22;2720;52.396;10.064;2022-12-24T09:41:30;9.00;99.90
5394;DHT22;2720;52.396;10.064;2022-12-24T09:44:01;9.00;99.90
5394;DHT22;2720;52.396;10.064;2022-12-24T09:46:32;9.00;99.90
5394;DHT22;2720;52.396;10.064;2022-12-24T09:49:04;9.00;99.90
5394;DHT22;2720;52.396;10.064;2022-12-24T09:51:37;9.00;99.90
5394;DHT22;2720;52.396;10.064;2022-12-24T09:54:08;9.10;99.90
5394;DHT22;2720;52.396;10.064;2022-12-24T09:56:39;9.20;99.90
5394;DHT22;2720;52.396;10.064;2022-12-24T09:59:12;9.20;99.90
5394;DHT22;2720;52.396;10.064;2022-12-24T10:01:40;9.30;99.90
5394;DHT22;2720;52.396;10.064;2022-12-24T10:04:12;9.30;99.90
5394;DHT22;2720;52.396;10.064;2022-12-24T10:06:48;9.30;99.90
5394;DHT22;2720;52.396;10.064;2022-12-24T10:09:24;9.40;99.90
5394;DHT22;2720;52.396;10.064;2022-12-24T10:14:41;9.60;99.90
5394;DHT22;2720;52.396;10.064;2022-12-24T10:17:28;9.90;99.90
5394;DHT22;2720;52.396;10.064;2022-12-24T10:20:10;10.00;99.90
5394;DHT22;2720;52.396;10.064;2022-12-24T10:22:49;10.20;99.90
5394;DHT22;2720;52.396;10.064;2022-12-24T10:25:23;10.20;99.90
5394;DHT22;2720;52.396;10.064;2022-12-24T10:27:54;10.30;99.90
5394;DHT22;2720;52.396;10.064;2022-12-24T10:30:23;10.20;99.90
5394;DHT22;2720;52.396;10.064;2022-12-24T10:32:52;10.30;99.90
5394;DHT22;2720;52.396;10.064;2022-12-24T10:35:24;10.30;99.90
5394;DHT22;2720;52.396;10.064;2022-12-24T10:37:52;10.40;99.90
5394;DHT22;2720;52.396;10.064;2022-12-24T10:40:29;10.60;99.90
5394;DHT22;2720;52.396;10.064;2022-12-24T10:42:58;10.60;99.90
5394;DHT22;2720;52.396;10.064;2022-12-24T10:45:28;10.80;99.90
5394;DHT22;2720;52.396;10.064;2022-12-24T10:48:01;10.70;99.90
5394;DHT22;2720;52.396;10.064;2022-12-24T10:50:35;10.80;99.90
5394;DHT22;2720;52.396;10.064;2022-12-24T10:53:10;10.90;99.90
5394;DHT22;2720;52.396;10.064;2022-12-24T10:55:40;11.00;99.90
5394;DHT22;2720;52.396;10.064;2022-12-24T10:58:13;11.10;99.90
5394;DHT22;2720;52.396;10.064;2022-12-24T11:00:49;11.10;99.90
5394;DHT22;2720;52.396;10.064;2022-12-24T11:03:22;11.00;99.90
5394;DHT22;2720;52.396;10.064;2022-12-24T11:06:09;11.10;99.90
5394;DHT22;2720;52.396;10.064;2022-12-24T11:08:39;11.10;99.90
5394;DHT22;2720;52.396;10.064;2022-12-24T11:11:09;11.20;99.90
5394;DHT22;2720;52.396;10.064;2022-12-24T11:13:39;11.20;99.90
5394;DHT22;2720;52.396;10.064;2022-12-24T12:41:42;10.20;99.90
5394;DHT22;2720;52.396;10.064;2022-12-24T12:44:34;10.40;99.90
5394;DHT22;2720;52.396;10.064;2022-12-24T12:47:22;10.30;99.90
5394;DHT22;2720;52.396;10.064;2022-12-24T12:49:58;10.40;99.90
5394;DHT22;2720;52.396;10.064;2022-12-24T12:52:38;10.30;99.90
5394;DHT22;2720;52.396;10.064;2022-12-24T12:55:21;10.30;99.90
5394;DHT22;2720;52.396;10.064;2022-12-24T12:57:53;10.30;99.90
5394;DHT22;2720;52.396;10.064;2022-12-24T13:00:22;10.30;99.90
5394;DHT22;2720;52.396;10.064;2022-12-24T13:03:11;10.40;99.90
5394;DHT22;2720;52.396;10.064;2022-12-24T13:09:21;10.10;99.90
5394;DHT22;2720;52.396;10.064;2022-12-24T13:12:02;9.80;99.90
5394;DHT22;2720;52.396;10.064;2022-12-24T13:14:52;9.70;99.90
5394;DHT22;2720;52.396;10.064;2022-12-24T13:17:45;9.50;99.90
5394;DHT22;2720;52.396;10.064;2022-12-24T13:20:20;9.40;99.90
5394;DHT22;2720;52.396;10.064;2022-12-24T13:22:55;9.40;99.90
5394;DHT22;2720;52.396;10.064;2022-12-24T13:25:26;9.10;99.90
5394;DHT22;2720;52.396;10.064;2022-12-24T13:27:54;9.00;99.90
5394;DHT22;2720;52.396;10.064;2022-12-24T13:30:35;9.00;99.90
5394;DHT22;2720;52.396;10.064;2022-12-24T13:33:02;8.90;99.90
5394;DHT22;2720;52.396;10.064;2022-12-24T13:35:35;8.80;99.90
5394;DHT22;2720;52.396;10.064;2022-12-24T13:38:38;8.80;99.90
5394;DHT22;2720;52.396;10.064;2022-12-24T13:44:26;8.90;99.90
5394;DHT22;2720;52.396;10.064;2022-12-24T13:49:49;8.90;99.90
5394;DHT22;2720;52.396;10.064;2022-12-24T13:52:22;8.90;99.90
5394;DHT22;2720;52.396;10.064;2022-12-24T13:55:04;9.00;99.90
5394;DHT22;2720;52.396;10.064;2022-12-24T13:57:36;9.10;99.90
5394;DHT22;2720;52.396;10.064;2022-12-24T14:00:17;9.00;99.90
5394;DHT22;2720;52.396;10.064;2022-12-24T14:02:52;8.80;99.90
5394;DHT22;2720;52.396;10.064;2022-12-24T14:05:25;8.60;99.90
5394;DHT22;2720;52.396;10.064;2022-12-24T14:07:54;8.50;99.90
5394;DHT22;2720;52.396;10.064;2022-12-24T14:10:24;8.30;99.90
5394;DHT22;2720;52.396;10.064;2022-12-24T14:12:52;8.20;99.90
5394;DHT22;2720;52.396;10.064;2022-12-24T14:15:43;8.10;99.90
5394;DHT22;2720;52.396;10.064;2022-12-24T14:18:16;8.10;99.90
5394;DHT22;2720;52.396;10.064;2022-12-24T14:20:47;8.10;99.90
5394;DHT22;2720;52.396;10.064;2022-12-24T14:23:22;8.00;99.90
5394;DHT22;2720;52.396;10.064;2022-12-24T14:25:53;8.00;99.90
5394;DHT22;2720;52.396;10.064;2022-12-24T14:28:24;8.00;99.90
5394;DHT22;2720;52.396;10.064;2022-12-24T14:30:59;8.00;99.90
5394;DHT22;2720;52.396;10.064;2022-12-24T14:33:32;8.00;99.90
5394;DHT22;2720;52.396;10.064;2022-12-24T14:36:01;8.00;99.90
5394;DHT22;2720;52.396;10.064;2022-12-24T14:38:29;8.00;99.90
5394;DHT22;2720;52.396;10.064;2022-12-24T14:41:02;8.10;99.90
5394;DHT22;2720;52.396;10.064;2022-12-24T14:43:47;8.00;99.90
5394;DHT22;2720;52.396;10.064;2022-12-24T14:46:21;8.00;99.90
5394;DHT22;2720;52.396;10.064;2022-12-24T14:48:54;8.10;99.90
5394;DHT22;2720;52.396;10.064;2022-12-24T14:51:28;8.10;99.90
5394;DHT22;2720;52.396;10.064;2022-12-24T14:54:09;8.10;99.90
5394;DHT22;2720;52.396;10.064;2022-12-24T14:56:39;8.10;99.90
5394;DHT22;2720;52.396;10.064;2022-12-24T14:59:14;8.10;99.90
5394;DHT22;2720;52.396;10.064;2022-12-24T15:01:41;8.20;99.90
5394;DHT22;2720;52.396;10.064;2022-12-24T15:04:16;8.20;99.90
5394;DHT22;2720;52.396;10.064;2022-12-24T15:06:46;8.20;99.90
5394;DHT22;2720;52.396;10.064;2022-12-24T15:09:18;8.20;99.90
5394;DHT22;2720;52.396;10.064;2022-12-24T15:11:46;8.10;99.90
5394;DHT22;2720;52.396;10.064;2022-12-24T15:14:14;8.10;99.90
5394;DHT22;2720;52.396;10.064;2022-12-24T15:16:50;8.10;99.90
5394;DHT22;2720;52.396;10.064;2022-12-24T15:19:23;8.10;99.90
5394;DHT22;2720;52.396;10.064;2022-12-24T15:21:52;8.10;99.90
5394;DHT22;2720;52.396;10.064;2022-12-24T15:24:24;8.20;99.90
5394;DHT22;2720;52.396;10.064;2022-12-24T15:26:52;8.10;99.90
5394;DHT22;2720;52.396;10.064;2022-12-24T15:29:22;8.10;99.90
5394;DHT22;2720;52.396;10.064;2022-12-24T15:31:53;8.00;99.90
5394;DHT22;2720;52.396;10.064;2022-12-24T15:34:27;8.00;99.90
5394;DHT22;2720;52.396;10.064;2022-12-24T15:37:01;8.10;99.90
5394;DHT22;2720;52.396;10.064;2022-12-24T15:39:29;8.00;99.90
5394;DHT22;2720;52.396;10.064;2022-12-24T15:41:56;8.00;99.90
5394;DHT22;2720;52.396;10.064;2022-12-24T15:44:48;8.00;99.90
5394;DHT22;2720;52.396;10.064;2022-12-24T15:47:17;7.90;99.90
5394;DHT22;2720;52.396;10.064;2022-12-24T15:49:48;7.90;99.90
5394;DHT22;2720;52.396;10.064;2022-12-24T15:52:17;7.80;99.90
5394;DHT22;2720;52.396;10.064;2022-12-24T15:54:46;7.70;99.90
5394;DHT22;2720;52.396;10.064;2022-12-24T15:57:20;7.70;99.90
5394;DHT22;2720;52.396;10.064;2022-12-24T15:59:50;7.70;99.90
5394;DHT22;2720;52.396;10.064;2022-12-24T16:02:35;7.70;99.90
5394;DHT22;2720;52.396;10.064;2022-12-24T16:05:30;7.70;99.90
5394;DHT22;2720;52.396;10.064;2022-12-24T16:08:22;7.50;99.90
5394;DHT22;2720;52.396;10.064;2022-12-24T16:10:51;7.40;99.90
5394;DHT22;2720;52.396;10.064;2022-12-24T16:13:21;7.20;99.90
5394;DHT22;2720;52.396;10.064;2022-12-24T16:15:52;7.30;99.90
5394;DHT22;2720;52.396;10.064;2022-12-24T16:18:25;7.30;99.90
5394;DHT22;2720;52.396;10.064;2022-12-24T16:20:54;7.20;99.90
5394;DHT22;2720;52.396;10.064;2022-12-24T16:23:23;7.10;99.90
5394;DHT22;2720;52.396;10.064;2022-12-24T16:25:51;7.00;99.90
5394;DHT22;2720;52.396;10.064;2022-12-24T16:28:18;7.00;99.90
5394;DHT22;2720;52.396;10.064;2022-12-24T16:30:47;7.00;99.90
5394;DHT22;2720;52.396;10.064;2022-12-24T16:33:15;7.00;99.90
5394;DHT22;2720;52.396;10.064;2022-12-24T16:35:43;7.10;99.90
5394;DHT22;2720;52.396;10.064;2022-12-24T16:38:12;7.10;99.90
5394;DHT22;2720;52.396;10.064;2022-12-24T16:40:39;7.30;99.90
5394;DHT22;2720;52.396;10.064;2022-12-24T16:43:06;7.40;99.90
5394;DHT22;2720;52.396;10.064;2022-12-24T16:45:50;7.40;99.90
5394;DHT22;2720;52.396;10.064;2022-12-24T16:48:20;7.40;99.90
5394;DHT22;2720;52.396;10.064;2022-12-24T16:50:47;7.40;99.90
5394;DHT22;2720;52.396;10.064;2022-12-24T16:53:17;7.40;99.90
5394;DHT22;2720;52.396;10.064;2022-12-24T16:55:44;7.40;99.90
5394;DHT22;2720;52.396;10.064;2022-12-24T16:58:15;7.40;99.90
5394;DHT22;2720;52.396;10.064;2022-12-24T17:00:43;7.50;99.90
5394;DHT22;2720;52.396;10.064;2022-12-24T17:03:10;7.50;99.90
5394;DHT22;2720;52.396;10.064;2022-12-24T17:05:39;7.50;99.90
5394;DHT22;2720;52.396;10.064;2022-12-24T17:08:06;7.50;99.90
5394;DHT22;2720;52.396;10.064;2022-12-24T17:10:35;7.50;99.90
5394;DHT22;2720;52.396;10.064;2022-12-24T17:13:02;7.40;99.90
5394;DHT22;2720;52.396;10.064;2022-12-24T17:15:29;7.30;99.90
5394;DHT22;2720;52.396;10.064;2022-12-24T17:17:56;7.40;99.90
5394;DHT22;2720;52.396;10.064;2022-12-24T17:20:23;7.10;99.90
5394;DHT22;2720;52.396;10.064;2022-12-24T17:22:50;7.10;99.90
5394;DHT22;2720;52.396;10.064;2022-12-24T17:25:17;7.10;99.90
5394;DHT22;2720;52.396;10.064;2022-12-24T17:27:46;7.00;99.90
5394;DHT22;2720;52.396;10.064;2022-12-24T17:30:13;6.90;99.90
5394;DHT22;2720;52.396;10.064;2022-12-24T17:32:40;6.80;99.90
5394;DHT22;2720;52.396;10.064;2022-12-24T17:35:08;6.70;99.90
5394;DHT22;2720;52.396;10.064;2022-12-24T17:37:35;6.60;99.90
5394;DHT22;2720;52.396;10.064;2022-12-24T17:40:03;6.60;99.90
5394;DHT22;2720;52.396;10.064;2022-12-24T17:42:30;6.50;99.90
5394;DHT22;2720;52.396;10.064;2022-12-24T17:44:59;6.60;99.90
5394;DHT22;2720;52.396;10.064;2022-12-24T17:47:26;6.60;99.90
5394;DHT22;2720;52.396;10.064;2022-12-24T17:49:53;6.40;99.90
5394;DHT22;2720;52.396;10.064;2022-12-24T17:52:19;6.40;99.90
5394;DHT22;2720;52.396;10.064;2022-12-24T17:54:46;6.40;99.90
5394;DHT22;2720;52.396;10.064;2022-12-24T17:57:13;6.30;99.90
5394;DHT22;2720;52.396;10.064;2022-12-24T17:59:40;6.30;99.90
5394;DHT22;2720;52.396;10.064;2022-12-24T18:02:10;6.20;99.90
5394;DHT22;2720;52.396;10.064;2022-12-24T18:04:38;6.20;99.90
5394;DHT22;2720;52.396;10.064;2022-12-24T18:07:05;6.00;99.90
5394;DHT22;2720;52.396;10.064;2022-12-24T18:09:32;6.00;99.90
5394;DHT22;2720;52.396;10.064;2022-12-24T18:11:59;5.90;99.90
5394;DHT22;2720;52.396;10.064;2022-12-24T18:14:26;5.90;99.90
5394;DHT22;2720;52.396;10.064;2022-12-24T18:16:53;5.90;99.90
5394;DHT22;2720;52.396;10.064;2022-12-24T18:19:22;5.90;99.90
5394;DHT22;2720;52.396;10.064;2022-12-24T18:21:49;5.80;99.90
5394;DHT22;2720;52.396;10.064;2022-12-24T18:24:16;5.90;99.90
5394;DHT22;2720;52.396;10.064;2022-12-24T18:26:44;5.90;99.90
5394;DHT22;2720;52.396;10.064;2022-12-24T18:29:11;5.90;99.90
5394;DHT22;2720;52.396;10.064;2022-12-24T18:31:38;5.90;99.90
5394;DHT22;2720;52.396;10.064;2022-12-24T18:34:07;5.90;99.90
5394;DHT22;2720;52.396;10.064;2022-12-24T18:36:36;5.90;99.90
5394;DHT22;2720;52.396;10.064;2022-12-24T18:39:03;5.80;99.90
5394;DHT22;2720;52.396;10.064;2022-12-24T18:41:31;5.90;99.90
5394;DHT22;2720;52.396;10.064;2022-12-24T18:43:58;5.90;99.90
5394;DHT22;2720;52.396;10.064;2022-12-24T18:46:29;5.80;99.90
5394;DHT22;2720;52.396;10.064;2022-12-24T18:48:57;5.90;99.90
5394;DHT22;2720;52.396;10.064;2022-12-24T18:51:27;5.90;99.90
5394;DHT22;2720;52.396;10.064;2022-12-24T18:53:56;5.90;99.90
5394;DHT22;2720;52.396;10.064;2022-12-24T18:56:24;5.90;99.90
5394;DHT22;2720;52.396;10.064;2022-12-24T18:58:52;5.80;99.90
5394;DHT22;2720;52.396;10.064;2022-12-24T19:01:21;5.80;99.90
5394;DHT22;2720;52.396;10.064;2022-12-24T19:03:49;5.80;99.90
5394;DHT22;2720;52.396;10.064;2022-12-24T19:06:16;5.80;99.90
5394;DHT22;2720;52.396;10.064;2022-12-24T19:08:44;5.80;99.90
5394;DHT22;2720;52.396;10.064;2022-12-24T19:11:12;5.80;99.90
5394;DHT22;2720;52.396;10.064;2022-12-24T19:13:39;5.80;99.90
5394;DHT22;2720;52.396;10.064;2022-12-24T19:16:07;5.90;99.90
5394;DHT22;2720;52.396;10.064;2022-12-24T19:18:34;5.90;99.90
5394;DHT22;2720;52.396;10.064;2022-12-24T19:21:05;5.90;99.90
5394;DHT22;2720;52.396;10.064;2022-12-24T19:23:32;5.80;99.90
5394;DHT22;2720;52.396;10.064;2022-12-24T19:25:59;5.80;99.90
5394;DHT22;2720;52.396;10.064;2022-12-24T19:28:29;5.70;99.90
5394;DHT22;2720;52.396;10.064;2022-12-24T19:31:01;5.70;99.90
5394;DHT22;2720;52.396;10.064;2022-12-24T19:33:29;5.60;99.90
5394;DHT22;2720;52.396;10.064;2022-12-24T19:35:56;5.50;99.90
5394;DHT22;2720;52.396;10.064;2022-12-24T19:38:23;5.50;99.90
5394;DHT22;2720;52.396;10.064;2022-12-24T19:40:50;5.50;99.90
5394;DHT22;2720;52.396;10.064;2022-12-24T19:43:17;5.40;99.90
5394;DHT22;2720;52.396;10.064;2022-12-24T19:45:45;5.50;99.90
5394;DHT22;2720;52.396;10.064;2022-12-24T19:48:12;5.40;99.90
5394;DHT22;2720;52.396;10.064;2022-12-24T19:50:39;5.30;99.90
5394;DHT22;2720;52.396;10.064;2022-12-24T19:53:06;5.30;99.90
5394;DHT22;2720;52.396;10.064;2022-12-24T19:55:33;5.30;99.90
5394;DHT22;2720;52.396;10.064;2022-12-24T19:58:00;5.30;99.90
5394;DHT22;2720;52.396;10.064;2022-12-24T20:00:27;5.30;99.90
5394;DHT22;2720;52.396;10.064;2022-12-24T20:02:55;5.40;99.90
5394;DHT22;2720;52.396;10.064;2022-12-24T20:05:22;5.30;99.90
5394;DHT22;2720;52.396;10.064;2022-12-24T20:07:49;5.30;99.90
5394;DHT22;2720;52.396;10.064;2022-12-24T20:10:16;5.30;99.90
5394;DHT22;2720;52.396;10.064;2022-12-24T20:12:43;5.30;99.90
5394;DHT22;2720;52.396;10.064;2022-12-24T20:15:10;5.20;99.90